Manderson, South Dakota
Current Conditions -  °F | °C
As of 3:52 PM on Friday 31 Oct 2014 (Local Time) from KIEN Reporting Station
Clear Clear  
Wind Chill: 51°   Ceiling: Unl
Heat Index: 51°   Visibility: 10mi
Dew Point: 26°   Wind: 16mph
Humidity: 38%   Direction: 170°S
Pressure: 30.14"   Gusts: 30mph
Location:  43.24°N, 102.47°W
Report Text: KIEN 312152Z AUTO 17014G26KT 10SM CLR 11/M03 A3014 RMK AO2 PK WND 18033/2107 SLP222 T01061033
Loading
Personal Weather Stations






























Interactive Weather Map
Tropical Storm Tracking
New forecast layout! Learn more

10-Day Weather Forecast

Advertisements
Track Severe Weather on mobile